PSB weather

Mid-State Regional Airport
Philipsburg, Pennsylvania, United States

Public forecast

Using degrees Fahrenheit for public forecast. Weather courtesy of forecast.io.

Closest aviation weather report (METAR) to Mid-State Regional Airport

Closest report is University Park Airport, 11.0 nm (20.4 km) E. Retrieved 2020/08/06 06:35 UTC (0 seconds ago):

KUNV 060635Z AUTO 00000KT 10SM CLR 16/12 A3014 RMK AO2 T01550116

Closest aviation forecast (TAF) to Mid-State Regional Airport

Closest forecast is University Park Airport, 11.0 nm (20.4 km) E. Retrieved 2020/08/06 06:33 UTC (0 seconds ago):

TAF KUNV 060530Z 0606/0706 00000KT P6SM SKC FM061200 VRB03KT P6SM BKN250 FM061800 10004KT P6SM BKN035 FM070300 00000KT P6SM OVC015